Time;durP1;ratioP1;P1;durP2;ratioP2;P2;SDS_P1;SDS_P2;PMS_P1;PMS_P2;Temp;Humidity;BMP_temperature;BMP_pressure;BME280_temperature;BME280_humidity;BME280_pressure;Samples;Min_cycle;Max_cycle;Signal;HPM_P1;HPM_P2
2022/05/25 00:04:35;;;;;;;1.05;0.13;;;;;;;20.99;42.15;101192.00;16135707;19;130227;-46
2022/05/25 00:09:56;;;;;;;1.38;0.10;;;;;;;20.98;42.36;101192.25;16135665;19;130466;-44
2022/05/25 00:15:18;;;;;;;0.32;0.10;;;;;;;20.98;41.90;101203.38;16135561;19;130258;-44
2022/05/25 00:20:40;;;;;;;0.93;0.10;;;;;;;20.98;41.86;101209.81;16130412;19;130490;-45
2022/05/25 00:26:02;;;;;;;0.55;0.20;;;;;;;20.98;42.27;101203.38;16130988;19;130302;-45
2022/05/25 00:31:23;;;;;;;1.75;0.10;;;;;;;20.95;42.27;101213.09;16135175;19;130178;-45
2022/05/25 00:36:45;;;;;;;0.20;0.10;;;;;;;20.94;41.79;101207.78;16135557;19;129579;-48
2022/05/25 00:42:07;;;;;;;0.75;0.13;;;;;;;20.94;41.91;101207.78;16126872;19;129682;-45
2022/05/25 00:47:30;;;;;;;0.43;0.15;;;;;;;20.94;42.26;101218.91;16132494;19;129453;-47
2022/05/25 00:52:52;;;;;;;0.85;0.10;;;;;;;20.92;42.31;101224.72;16144896;19;130595;-45
2022/05/25 00:58:14;;;;;;;1.40;0.10;;;;;;;20.90;42.35;101230.56;16145048;19;129791;-48
2022/05/25 01:03:36;;;;;;;2.05;0.17;;;;;;;20.89;41.90;101226.09;16141955;19;132909;-44
2022/05/25 01:09:24;;;;;;;0.20;0.10;;;;;;;20.89;42.40;101228.88;16145803;19;130183;-43
2022/05/25 01:15:01;;;;;;;0.32;0.10;;;;;;;20.86;42.36;101229.38;16146666;19;130370;-49
2022/05/25 01:20:43;;;;;;;0.30;0.10;;;;;;;20.86;41.92;101232.16;16139881;19;129484;-49
2022/05/25 01:26:20;;;;;;;0.13;0.10;;;;;;;20.85;42.05;101238.81;16145914;19;129833;-45
2022/05/25 01:31:47;;;;;;;0.40;0.20;;;;;;;20.84;42.36;101237.13;16147337;19;130388;-48
2022/05/25 01:37:21;;;;;;;0.85;0.20;;;;;;;20.83;42.10;101241.00;16146564;19;130244;-46
2022/05/25 01:42:57;;;;;;;1.45;0.20;;;;;;;20.83;42.27;101246.56;16139987;19;129701;-44
2022/05/25 01:48:21;;;;;;;0.10;0.10;;;;;;;20.81;42.41;101236.78;16146235;19;130464;-44
2022/05/25 01:53:47;;;;;;;1.00;0.10;;;;;;;20.81;42.20;101247.91;16144679;19;130096;-45
2022/05/25 01:59:12;;;;;;;0.10;0.10;;;;;;;20.80;41.85;101244.28;16141090;19;130068;-46
2022/05/25 02:04:35;;;;;;;0.30;0.10;;;;;;;20.78;41.90;101242.84;16142467;19;130346;-45
2022/05/25 02:10:02;;;;;;;0.13;0.05;;;;;;;20.79;42.25;101245.41;16144148;19;128944;-45
2022/05/25 02:15:59;;;;;;;0.60;0.13;;;;;;;20.78;42.18;101253.97;16143477;19;129870;-45
2022/05/25 02:22:04;;;;;;;1.05;0.10;;;;;;;20.75;42.14;101249.72;16137302;19;130669;-45
2022/05/25 02:27:35;;;;;;;0.70;0.10;;;;;;;20.75;41.88;101260.84;16134065;19;131024;-50
2022/05/25 02:33:02;;;;;;;0.82;0.10;;;;;;;20.74;41.89;101251.66;16132361;19;129554;-45
2022/05/25 02:38:25;;;;;;;0.47;0.17;;;;;;;20.73;42.04;101263.91;16131799;19;131648;-45
2022/05/25 02:43:47;;;;;;;1.00;0.20;;;;;;;20.72;42.02;101273.34;16130432;19;130663;-43
2022/05/25 02:49:09;;;;;;;0.70;0.20;;;;;;;20.73;41.81;101268.59;16131623;19;129907;-48
2022/05/25 02:54:31;;;;;;;1.45;0.10;;;;;;;20.71;42.18;101274.44;16132432;19;129642;-46
2022/05/25 02:59:52;;;;;;;0.57;0.10;;;;;;;20.71;41.96;101276.34;16138286;19;129739;-48
2022/05/25 03:05:14;;;;;;;0.55;0.15;;;;;;;20.70;42.20;101269.97;16139948;19;129549;-47
2022/05/25 03:10:36;;;;;;;0.93;0.20;;;;;;;20.70;41.77;101274.66;16138291;19;130055;-46
2022/05/25 03:16:02;;;;;;;1.35;0.10;;;;;;;20.70;41.95;101281.06;16137982;19;129664;-44
2022/05/25 03:21:25;;;;;;;0.55;0.10;;;;;;;20.69;42.34;101296.06;16136718;19;129841;-46
2022/05/25 03:26:47;;;;;;;0.68;0.20;;;;;;;20.67;41.84;101295.47;16137178;19;131815;-47
2022/05/25 03:32:09;;;;;;;0.50;0.10;;;;;;;20.67;41.95;101291.88;16137286;19;130685;-43
2022/05/25 03:37:31;;;;;;;1.38;0.20;;;;;;;20.65;41.93;101299.59;16135374;19;129459;-45
2022/05/25 03:42:53;;;;;;;0.70;0.10;;;;;;;20.65;41.83;101316.28;16133484;19;130469;-47
2022/05/25 03:48:15;;;;;;;0.28;0.10;;;;;;;20.65;41.76;101316.28;16136323;19;129597;-45
2022/05/25 03:53:37;;;;;;;0.32;0.10;;;;;;;20.64;42.11;101322.94;16136372;19;130092;-46
2022/05/25 03:58:58;;;;;;;0.35;0.08;;;;;;;20.62;41.94;101327.91;16134073;19;130356;-44
2022/05/25 04:04:20;;;;;;;1.30;0.20;;;;;;;20.62;41.87;101330.69;16134857;19;130042;-43
2022/05/25 04:09:42;;;;;;;0.10;0.10;;;;;;;20.62;41.96;101339.03;16134955;19;129671;-44
2022/05/25 04:15:04;;;;;;;0.50;0.20;;;;;;;20.62;41.94;101339.03;16132402;19;129721;-45
2022/05/25 04:20:28;;;;;;;1.20;0.40;;;;;;;20.60;42.05;101345.66;16127864;19;130504;-46
2022/05/25 04:25:50;;;;;;;0.98;0.50;;;;;;;20.59;41.63;101340.38;16137000;19;129018;-45
2022/05/25 04:31:11;;;;;;;0.68;0.20;;;;;;;20.59;41.83;101330.09;16132928;19;129822;-45
2022/05/25 04:36:33;;;;;;;0.30;0.10;;;;;;;20.59;41.52;101334.81;16131662;19;130474;-45
2022/05/25 04:41:55;;;;;;;0.47;0.30;;;;;;;20.59;41.79;101343.97;16130291;19;130043;-44
2022/05/25 04:47:17;;;;;;;1.10;0.30;;;;;;;20.58;41.61;101341.47;16133223;19;129053;-46
2022/05/25 04:52:38;;;;;;;0.20;0.08;;;;;;;20.59;41.83;101345.94;16130544;19;129681;-45
2022/05/25 04:58:01;;;;;;;0.30;0.10;;;;;;;20.57;41.79;101348.13;16131593;19;129452;-48
2022/05/25 05:03:25;;;;;;;0.50;0.20;;;;;;;20.58;41.51;101350.63;16126795;19;129662;-46
2022/05/25 05:08:46;;;;;;;0.20;0.05;;;;;;;20.56;41.81;101347.25;16131414;19;129710;-46
2022/05/25 05:14:08;;;;;;;0.73;0.20;;;;;;;20.55;41.55;101348.38;16131711;19;130398;-48
2022/05/25 05:19:30;;;;;;;4.50;0.40;;;;;;;20.60;41.33;101356.78;16125345;19;130317;-43
2022/05/25 05:24:52;;;;;;;7.32;0.20;;;;;;;20.66;41.47;101362.47;16123978;19;131210;-48
2022/05/25 05:30:18;;;;;;;5.05;0.43;;;;;;;20.72;41.45;101355.88;16130906;19;130349;-48
2022/05/25 05:35:41;;;;;;;2.67;0.15;;;;;;;20.79;41.14;101351.06;16137050;19;129367;-48
2022/05/25 05:41:03;;;;;;;6.13;0.40;;;;;;;20.87;41.18;101350.63;16139624;19;130234;-48
2022/05/25 05:46:28;;;;;;;5.32;0.60;;;;;;;20.95;40.92;101354.94;16142879;19;129734;-48
2022/05/25 05:51:50;;;;;;;5.93;0.40;;;;;;;21.01;41.02;101353.91;16141686;19;130540;-45
2022/05/25 05:57:13;;;;;;;1.20;0.30;;;;;;;21.08;40.73;101364.88;16140962;19;129918;-45
2022/05/25 06:02:35;;;;;;;0.82;0.32;;;;;;;21.11;40.53;101369.94;16136912;19;130659;-45
2022/05/25 06:07:56;;;;;;;3.03;0.40;;;;;;;21.16;40.85;101375.59;16137191;19;131641;-51
2022/05/25 06:13:18;;;;;;;2.88;0.30;;;;;;;21.19;40.22;101371.47;16140605;19;130421;-48
2022/05/25 06:24:21;;;;;;;2.83;0.40;;;;;;;21.25;40.36;101386.31;16127098;19;130765;-44
2022/05/25 06:29:48;;;;;;;3.72;0.50;;;;;;;21.29;39.81;101388.31;16136329;19;131011;-48
2022/05/25 06:35:10;;;;;;;4.28;0.65;;;;;;;21.28;39.85;101385.81;16135539;19;129494;-45
2022/05/25 06:40:32;;;;;;;3.63;0.60;;;;;;;21.29;39.76;101390.28;16131655;19;129912;-48
2022/05/25 06:45:54;;;;;;;4.25;0.70;;;;;;;21.29;39.51;101393.91;16134951;19;131712;-50
2022/05/25 06:51:20;;;;;;;1.20;0.40;;;;;;;21.32;39.34;101401.75;16132688;19;130521;-44
2022/05/25 06:56:43;;;;;;;1.95;0.70;;;;;;;21.33;39.40;101397.88;16133421;19;129774;-44
2022/05/25 07:02:05;;;;;;;1.73;0.50;;;;;;;21.37;38.87;101406.53;16130844;19;129855;-48
2022/05/25 07:07:27;;;;;;;3.95;0.50;;;;;;;21.40;39.08;101414.41;16129553;19;130624;-48
2022/05/25 07:12:49;;;;;;;3.58;0.63;;;;;;;21.45;38.82;101416.41;16130807;19;130255;-48
2022/05/25 07:18:11;;;;;;;4.90;0.70;;;;;;;21.49;39.07;101414.81;16128677;19;129494;-45
2022/05/25 07:23:35;;;;;;;5.85;0.90;;;;;;;21.52;39.06;101420.75;16128363;19;129529;-49
2022/05/25 07:28:56;;;;;;;4.05;0.80;;;;;;;21.55;38.93;101415.75;16139703;19;129568;-45
2022/05/25 07:34:25;;;;;;;2.03;0.77;;;;;;;21.61;39.24;101429.50;16136726;19;129799;-47
2022/05/25 07:40:02;;;;;;;3.30;0.70;;;;;;;21.66;38.89;101431.53;16141979;19;129384;-51
2022/05/25 07:45:24;;;;;;;6.70;0.68;;;;;;;21.69;39.20;101436.56;16140896;19;129478;-49
2022/05/25 07:50:46;;;;;;;4.35;0.93;;;;;;;21.71;39.25;101431.59;16137213;19;131788;-49
2022/05/25 07:56:08;;;;;;;3.80;0.70;;;;;;;21.72;39.54;101436.06;16134928;19;129533;-47
2022/05/25 08:07:14;;;;;;;6.25;0.70;;;;;;;21.71;39.07;101444.69;16118824;19;131322;-46
2022/05/25 08:12:38;;;;;;;2.65;0.60;;;;;;;21.72;39.23;101454.75;16120001;19;129674;-47
2022/05/25 08:18:00;;;;;;;3.95;0.55;;;;;;;21.72;39.49;101454.75;16131459;19;130012;-48
2022/05/25 08:23:22;;;;;;;2.67;0.63;;;;;;;21.75;39.17;101459.78;16135412;19;129678;-47
2022/05/25 08:28:44;;;;;;;1.75;0.40;;;;;;;21.74;38.99;101455.28;16142536;19;130409;-48
2022/05/25 08:34:06;;;;;;;1.85;0.45;;;;;;;21.75;39.24;101454.19;16144171;19;130200;-46
2022/05/25 08:39:28;;;;;;;2.28;0.60;;;;;;;21.75;38.98;101452.28;16140623;19;130411;-45
2022/05/25 08:44:53;;;;;;;1.70;0.43;;;;;;;21.74;39.26;101445.03;16140785;19;129462;-47
2022/05/25 08:50:15;;;;;;;2.05;0.60;;;;;;;21.72;38.79;101450.00;16134118;19;129356;-48
2022/05/25 08:55:36;;;;;;;0.93;0.40;;;;;;;21.69;39.19;101447.72;16137177;19;128855;-49
2022/05/25 09:01:03;;;;;;;1.30;0.45;;;;;;;21.68;39.30;101451.59;16135809;19;130339;-48
2022/05/25 09:06:53;;;;;;;0.80;0.30;;;;;;;21.66;39.04;101445.47;16137071;19;129802;-47
2022/05/25 09:12:17;;;;;;;2.05;0.70;;;;;;;21.64;39.27;101456.84;16150533;19;130376;-47
2022/05/25 09:17:49;;;;;;;1.15;0.40;;;;;;;21.66;39.14;101456.59;16151809;19;128980;-45
2022/05/25 09:23:13;;;;;;;3.08;0.73;;;;;;;21.65;39.20;101457.69;16147701;19;129524;-47
2022/05/25 09:28:42;;;;;;;1.33;0.65;;;;;;;21.65;39.17;101452.94;16151598;19;129055;-49
2022/05/25 09:34:10;;;;;;;1.60;0.50;;;;;;;21.65;38.89;101452.94;16149456;19;129008;-48
2022/05/25 09:39:38;;;;;;;3.20;0.50;;;;;;;21.65;39.21;101446.56;16149617;19;129880;-46
2022/05/25 09:45:00;;;;;;;1.52;0.60;;;;;;;21.67;39.05;101447.13;16145076;19;129452;-48
2022/05/25 09:50:31;;;;;;;2.35;0.65;;;;;;;21.67;39.07;101455.47;16146306;19;129335;-49
2022/05/25 09:56:03;;;;;;;1.48;0.45;;;;;;;21.63;39.11;101457.09;16152581;19;129428;-47
2022/05/25 10:01:32;;;;;;;0.77;0.40;;;;;;;21.62;38.97;101474.91;16140661;19;130099;-52
2022/05/25 10:06:56;;;;;;;1.40;0.40;;;;;;;21.59;39.34;101470.69;16146334;19;129882;-45
2022/05/25 10:12:34;;;;;;;1.38;0.60;;;;;;;21.57;39.52;101467.31;16149304;19;130039;-47
2022/05/25 10:17:56;;;;;;;1.83;0.53;;;;;;;21.57;39.62;101466.44;16146087;19;130049;-50
2022/05/25 10:23:18;;;;;;;2.50;0.60;;;;;;;21.56;39.34;101450.84;16141708;19;130277;-46
2022/05/25 10:28:54;;;;;;;1.60;0.37;;;;;;;21.58;39.13;101445.88;16143457;19;129314;-48
2022/05/25 10:40:07;;;;;;;2.22;0.60;;;;;;;21.56;39.54;101456.41;16147521;19;129202;-46
2022/05/25 10:45:38;;;;;;;1.35;0.40;;;;;;;21.56;39.69;101464.75;16146858;19;129617;-47
2022/05/25 10:51:07;;;;;;;1.38;0.40;;;;;;;21.55;39.43;101458.38;16148238;19;129513;-48
2022/05/25 10:56:36;;;;;;;4.05;0.80;;;;;;;21.55;39.37;101468.63;16145980;19;131968;-46
2022/05/25 11:02:35;;;;;;;0.73;0.33;;;;;;;21.58;39.40;101451.44;16137187;19;130478;-48
2022/05/25 11:08:22;;;;;;;3.65;0.40;;;;;;;21.57;39.40;101452.53;16144686;19;129363;-48
2022/05/25 11:14:06;;;;;;;3.33;0.57;;;;;;;21.55;39.09;101451.94;16143143;19;129923;-49
2022/05/25 11:19:50;;;;;;;2.90;0.40;;;;;;;21.55;38.87;101457.50;16140277;19;130311;-50
2022/05/25 11:25:33;;;;;;;2.80;0.55;;;;;;;21.55;38.67;101446.38;16139162;19;128874;-53
2022/05/25 11:31:13;;;;;;;4.97;0.50;;;;;;;21.53;38.32;101441.06;16145000;19;128731;-48
2022/05/25 11:37:05;;;;;;;2.15;0.47;;;;;;;21.52;38.18;101443.03;16144118;19;129305;-50
2022/05/25 11:42:39;;;;;;;3.00;0.45;;;;;;;21.53;38.25;101454.97;16140673;19;129617;-50
2022/05/25 11:48:26;;;;;;;1.70;0.45;;;;;;;21.51;38.54;101458.03;16143608;19;129466;-50
2022/05/25 11:54:17;;;;;;;2.40;0.45;;;;;;;21.51;38.66;101443.25;16142876;19;128755;-49
2022/05/25 12:00:07;;;;;;;0.52;0.28;;;;;;;21.50;38.49;101450.78;16143844;19;129556;-50
2022/05/25 12:05:49;;;;;;;1.20;0.30;;;;;;;21.50;38.13;101442.44;16135447;19;130310;-45
2022/05/25 12:11:39;;;;;;;1.13;0.32;;;;;;;21.51;38.73;101437.69;16142301;19;129493;-51
2022/05/25 12:17:19;;;;;;;2.53;0.50;;;;;;;21.52;38.35;101448.59;16139890;19;130056;-50
2022/05/25 12:22:55;;;;;;;3.88;0.40;;;;;;;21.50;37.99;101445.22;16138183;19;129352;-50
2022/05/25 12:28:17;;;;;;;1.98;0.50;;;;;;;21.48;38.01;101458.50;16138962;19;129371;-47
2022/05/25 12:33:40;;;;;;;2.15;0.20;;;;;;;21.49;37.93;101454.66;16140668;19;131153;-48
2022/05/25 12:39:02;;;;;;;1.95;0.60;;;;;;;21.50;38.07;101449.91;16140472;19;130092;-52
2022/05/25 12:50:33;;;;;;;3.05;0.40;;;;;;;21.47;38.19;101448.47;16140103;19;130152;-49
2022/05/25 12:56:01;;;;;;;12.50;1.48;;;;;;;21.51;38.14;101452.47;16138320;19;129422;-48
2022/05/25 13:01:23;;;;;;;11.10;1.83;;;;;;;21.52;38.23;101451.38;16138250;19;128853;-49
2022/05/25 13:06:46;;;;;;;9.88;1.23;;;;;;;21.51;37.97;101452.47;16138333;19;128984;-49
2022/05/25 13:12:39;;;;;;;7.85;0.95;;;;;;;21.52;37.67;101450.50;16138707;19;129437;-50
2022/05/25 13:18:01;;;;;;;10.15;0.93;;;;;;;21.50;38.27;101448.00;16136267;19;130184;-49
2022/05/25 13:24:02;;;;;;;2.22;0.70;;;;;;;21.51;37.69;101446.91;16135027;19;132623;-47
2022/05/25 13:29:32;;;;;;;3.30;0.77;;;;;;;21.52;38.14;101445.81;16136613;19;129015;-54
2022/05/25 13:34:54;;;;;;;5.25;0.63;;;;;;;21.51;37.33;101458.03;16137593;19;128964;-50
2022/05/25 13:40:18;;;;;;;3.40;0.63;;;;;;;21.52;37.41;101462.50;16136990;19;130758;-49
2022/05/25 13:45:44;;;;;;;5.15;0.95;;;;;;;21.54;37.71;101455.84;16129134;19;129276;-50
2022/05/25 13:51:06;;;;;;;3.40;0.50;;;;;;;21.53;37.21;101446.63;16137065;19;129167;-53
2022/05/25 13:56:32;;;;;;;6.07;0.70;;;;;;;21.54;37.57;101462.25;16139014;19;129895;-53
2022/05/25 14:02:32;;;;;;;3.17;0.73;;;;;;;21.55;37.64;101451.94;16149967;19;129540;-42
2022/05/25 14:10:54;;;;;;;2.75;0.43;;;;;;;21.55;37.64;101451.94;16151353;19;129834;-48
2022/05/25 14:14:17;;;;;;;4.32;0.63;;;;;;;21.52;37.61;101459.72;16149891;19;128911;-50
2022/05/25 14:19:51;;;;;;;2.83;0.57;;;;;;;21.50;37.17;101467.47;16145014;19;129852;-50
2022/05/25 14:25:19;;;;;;;4.45;0.30;;;;;;;21.48;37.46;101463.22;16144791;19;129393;-46
2022/05/25 14:30:41;;;;;;;7.18;0.80;;;;;;;21.47;37.52;101470.72;16151447;19;131228;-49
2022/05/25 14:36:03;;;;;;;8.13;0.80;;;;;;;21.44;37.34;101468.44;16149493;19;129907;-46
2022/05/25 14:41:44;;;;;;;1.45;0.30;;;;;;;21.42;37.69;101473.41;16146217;19;129063;-51
2022/05/25 14:47:31;;;;;;;5.93;0.50;;;;;;;21.40;37.62;101478.41;16149509;19;129639;-52
2022/05/25 14:53:10;;;;;;;2.47;0.40;;;;;;;21.39;37.95;101482.28;16150892;19;128960;-51
2022/05/25 14:58:45;;;;;;;8.00;0.90;;;;;;;21.41;37.53;101473.69;16148440;19;129967;-54
2022/05/25 15:04:11;;;;;;;5.07;0.75;;;;;;;21.40;37.77;101475.63;16145605;19;129433;-55
2022/05/25 15:09:37;;;;;;;;;;;;;;;21.38;37.75;101491.72;16146576;19;129351;-54
2022/05/25 15:20:51;;;;;;;2.83;0.50;;;;;;;21.35;37.38;101497.78;16134977;19;130031;-55
2022/05/25 15:26:34;;;;;;;3.60;0.40;;;;;;;21.35;37.48;101500.56;16140956;19;130617;-49
2022/05/25 15:31:57;;;;;;;4.43;0.55;;;;;;;21.34;37.67;101496.97;16143622;19;129578;-51
2022/05/25 15:37:25;;;;;;;5.40;0.68;;;;;;;21.35;37.04;101503.34;16140192;19;130122;-52
2022/05/25 15:42:47;;;;;;;4.20;0.90;;;;;;;21.35;37.43;101509.75;16142236;19;130893;-50
2022/05/25 15:48:20;;;;;;;3.20;0.90;;;;;;;21.39;37.72;101504.56;16132945;19;130422;-50
2022/05/25 15:53:42;;;;;;;8.45;0.80;;;;;;;21.40;38.26;101511.81;16128490;19;129414;-50
2022/05/25 15:59:04;;;;;;;6.60;0.60;;;;;;;21.43;38.46;101518.81;16127659;19;129369;-50
2022/05/25 16:04:34;;;;;;;4.82;0.80;;;;;;;21.43;38.36;101514.06;16132460;19;130229;-47
2022/05/25 16:09:56;;;;;;;6.70;0.98;;;;;;;21.42;38.25;101519.91;16145066;19;129693;-48
2022/05/25 16:15:18;;;;;;;2.42;0.63;;;;;;;21.40;38.63;101528.50;16143500;19;129041;-49
2022/05/25 16:20:40;;;;;;;5.63;1.38;;;;;;;21.39;38.21;101531.53;16134348;19;129765;-52
2022/05/25 16:26:03;;;;;;;7.60;0.88;;;;;;;21.37;38.67;101517.88;16134076;19;129221;-46
2022/05/25 16:31:27;;;;;;;8.55;0.90;;;;;;;21.35;38.43;101515.31;16134609;19;129150;-48
2022/05/25 16:36:49;;;;;;;2.77;0.73;;;;;;;21.33;38.42;101528.66;16139701;19;129314;-51
2022/05/25 16:42:13;;;;;;;4.00;0.80;;;;;;;21.32;38.66;101520.56;16139622;19;129529;-52
2022/05/25 16:47:35;;;;;;;1.02;0.40;;;;;;;21.30;38.50;101528.31;16138350;19;128926;-52
2022/05/25 16:52:57;;;;;;;6.10;1.20;;;;;;;21.28;38.36;101511.88;16137991;19;129283;-51
2022/05/25 16:58:20;;;;;;;13.60;1.45;;;;;;;21.28;38.22;101533.28;16136650;19;129671;-53
2022/05/25 17:03:46;;;;;;;8.90;1.08;;;;;;;21.26;38.03;101530.75;16127370;19;129441;-49
2022/05/25 17:09:08;;;;;;;7.07;0.80;;;;;;;21.25;38.26;101531.00;16120856;19;129544;-51
2022/05/25 17:14:30;;;;;;;9.30;0.40;;;;;;;21.24;38.32;101543.22;16121934;19;129850;-52
2022/05/25 17:25:32;;;;;;;7.18;0.70;;;;;;;21.25;38.31;101554.09;16130960;19;129016;-53
2022/05/25 17:30:54;;;;;;;8.48;1.08;;;;;;;21.23;38.08;101550.75;16143363;19;131098;-48
2022/05/25 17:41:59;;;;;;;2.42;0.47;;;;;;;21.22;38.15;101566.59;16147151;19;129747;-49
2022/05/25 17:47:21;;;;;;;4.32;0.75;;;;;;;21.20;38.21;101557.63;16145768;19;130325;-53
2022/05/25 17:52:43;;;;;;;7.38;0.90;;;;;;;21.20;38.25;101565.16;16147294;19;129742;-53
2022/05/25 17:58:06;;;;;;;4.00;0.82;;;;;;;21.19;38.27;101567.06;16139912;19;130560;-49
2022/05/25 18:03:28;;;;;;;3.95;0.70;;;;;;;21.17;38.42;101569.25;16143594;19;129844;-50
2022/05/25 18:08:50;;;;;;;4.13;0.50;;;;;;;21.18;38.76;101570.13;16141542;19;130781;-49
2022/05/25 18:14:16;;;;;;;1.20;0.40;;;;;;;21.15;38.37;101565.91;16139758;19;131051;-52
2022/05/25 18:19:38;;;;;;;9.48;0.70;;;;;;;21.17;38.78;101574.81;16127090;19;131123;-51
2022/05/25 18:25:01;;;;;;;4.60;0.50;;;;;;;21.19;38.65;101566.25;16133491;19;129973;-52
2022/05/25 18:30:23;;;;;;;8.18;0.63;;;;;;;21.20;38.68;101579.91;16138902;19;130265;-48
2022/05/25 18:35:45;;;;;;;2.97;0.40;;;;;;;21.22;39.02;101572.16;16143003;19;130121;-54
2022/05/25 18:41:07;;;;;;;7.55;0.35;;;;;;;21.22;39.18;101574.94;16136111;19;130407;-54
2022/05/25 18:46:29;;;;;;;1.48;0.45;;;;;;;21.23;39.43;101573.00;16134068;19;130062;-50
2022/05/25 18:51:53;;;;;;;2.40;0.60;;;;;;;21.22;39.24;101574.94;16138111;19;130685;-52
2022/05/25 18:57:16;;;;;;;3.88;0.40;;;;;;;21.24;39.42;101573.84;16133406;19;130374;-49
2022/05/25 19:02:37;;;;;;;11.30;0.55;;;;;;;21.23;39.46;101578.56;16135771;19;130149;-53
2022/05/25 19:08:01;;;;;;;3.58;0.30;;;;;;;21.25;39.57;101586.66;16139127;19;130251;-50
2022/05/25 19:13:23;;;;;;;4.65;0.73;;;;;;;21.21;39.49;101587.16;16132098;19;131042;-53
2022/05/25 19:18:44;;;;;;;9.25;0.70;;;;;;;21.19;39.39;101588.50;16125218;19;130559;-58
2022/05/25 19:24:09;;;;;;;8.45;0.70;;;;;;;21.17;39.96;101594.28;16131834;19;130460;-53
2022/05/25 19:29:30;;;;;;;3.47;0.63;;;;;;;21.18;40.10;101601.56;16128296;19;129510;-57
2022/05/25 19:34:53;;;;;;;2.72;0.50;;;;;;;21.20;39.73;101604.94;16131564;19;129735;-43
2022/05/25 19:40:21;;;;;;;9.20;0.70;;;;;;;21.24;39.65;101607.22;16128151;19;129398;-46
2022/05/25 19:45:43;;;;;;;4.43;0.45;;;;;;;21.27;39.85;101615.94;16126553;19;130087;-51
2022/05/25 19:51:05;;;;;;;8.52;0.80;;;;;;;21.27;39.86;101623.44;16125062;19;130904;-46
2022/05/25 19:56:29;;;;;;;12.13;0.82;;;;;;;21.28;39.63;101633.47;16132099;19;130466;-51
2022/05/25 20:01:51;;;;;;;4.93;0.60;;;;;;;21.26;39.70;101630.09;16131523;19;130388;-51
2022/05/25 20:07:15;;;;;;;3.30;0.40;;;;;;;21.25;39.86;101645.09;16126539;19;129697;-56
2022/05/25 20:12:37;;;;;;;4.50;0.55;;;;;;;21.25;39.92;101645.09;16135798;19;129633;-55
2022/05/25 20:17:58;;;;;;;9.23;0.52;;;;;;;21.28;40.05;101652.97;16136705;19;129081;-55
2022/05/25 20:23:20;;;;;;;13.20;0.80;;;;;;;21.32;39.68;101654.13;16122497;19;131003;-43
2022/05/25 20:28:42;;;;;;;3.30;0.50;;;;;;;21.35;39.60;101660.06;16128096;19;129734;-53
2022/05/25 20:34:04;;;;;;;6.45;0.45;;;;;;;21.38;39.57;101669.88;16121665;19;129840;-45
2022/05/25 20:39:27;;;;;;;6.93;0.60;;;;;;;21.40;39.74;101667.69;16126009;19;130749;-47
2022/05/25 20:44:49;;;;;;;3.97;0.40;;;;;;;21.41;39.68;101663.81;16119588;19;130458;-51
2022/05/25 20:50:12;;;;;;;6.75;0.30;;;;;;;21.43;39.49;101675.53;16122250;19;130964;-47
2022/05/25 20:55:33;;;;;;;7.70;0.43;;;;;;;21.43;39.59;101669.94;16127136;19;130435;-51
2022/05/25 21:00:55;;;;;;;9.70;0.70;;;;;;;21.44;39.49;101674.44;16134074;19;129749;-48
2022/05/25 21:06:17;;;;;;;4.75;0.43;;;;;;;21.46;39.53;101676.97;16142771;19;131751;-51
2022/05/25 21:11:39;;;;;;;5.65;0.38;;;;;;;21.47;39.76;101678.69;16150722;19;130305;-48
2022/05/25 21:17:01;;;;;;;5.88;0.55;;;;;;;21.47;39.57;101685.06;16154152;19;129976;-50
2022/05/25 21:22:23;;;;;;;7.55;0.50;;;;;;;21.46;39.52;101690.91;16153904;19;130590;-47
2022/05/25 21:27:46;;;;;;;4.50;0.30;;;;;;;21.46;39.57;101685.34;16147789;19;129516;-44
2022/05/25 21:33:07;;;;;;;2.13;0.40;;;;;;;21.45;39.53;101698.41;16146508;19;130301;-49
2022/05/25 21:38:29;;;;;;;10.20;0.60;;;;;;;21.41;39.51;101691.66;16147285;19;131278;-49
2022/05/25 21:43:51;;;;;;;10.98;0.65;;;;;;;21.39;39.61;101692.97;16148272;19;129589;-45
2022/05/25 21:54:54;;;;;;;4.00;0.70;;;;;;;21.31;39.67;101688.63;16148770;19;130602;-47
2022/05/25 22:00:38;;;;;;;4.03;0.65;;;;;;;21.28;39.71;101689.16;16147534;19;129878;-47
2022/05/25 22:06:00;;;;;;;2.65;0.40;;;;;;;21.24;39.99;101687.94;16140537;19;129569;-46
2022/05/25 22:11:22;;;;;;;4.68;0.40;;;;;;;21.19;39.79;101695.06;16144981;19;128959;-47
2022/05/25 22:16:44;;;;;;;1.80;0.10;;;;;;;21.18;39.75;101698.09;16142590;19;130040;-54
2022/05/25 22:22:07;;;;;;;1.73;0.13;;;;;;;21.16;39.80;101697.50;16143869;19;130807;-49
2022/05/25 22:27:28;;;;;;;0.38;0.20;;;;;;;21.14;39.61;101700.53;16143384;19;129609;-48
2022/05/25 22:32:50;;;;;;;1.30;0.20;;;;;;;21.12;39.73;101705.50;16147375;19;129463;-47
2022/05/25 22:38:12;;;;;;;1.58;0.08;;;;;;;21.10;39.57;101707.69;16147188;19;129548;-46
2022/05/25 22:43:35;;;;;;;0.73;0.30;;;;;;;21.09;39.96;101708.75;16144644;19;130495;-53
2022/05/25 22:48:57;;;;;;;0.38;0.15;;;;;;;21.07;40.02;101713.72;16146662;19;129649;-48
2022/05/25 22:54:19;;;;;;;2.13;0.20;;;;;;;21.06;39.82;101712.03;16149400;19;130518;-48
2022/05/25 22:59:41;;;;;;;2.28;0.20;;;;;;;21.04;39.70;101708.66;16148355;19;129563;-49
2022/05/25 23:05:04;;;;;;;0.35;0.10;;;;;;;21.03;39.70;101712.53;16145324;19;130075;-51
2022/05/25 23:10:26;;;;;;;2.20;0.15;;;;;;;21.00;40.08;101713.00;16142167;19;129126;-50
2022/05/25 23:15:48;;;;;;;0.22;0.13;;;;;;;21.00;40.05;101721.34;16142613;19;128985;-51
2022/05/25 23:21:09;;;;;;;0.10;0.10;;;;;;;20.99;39.91;101730.78;16138581;19;129141;-47
2022/05/25 23:26:31;;;;;;;1.65;0.17;;;;;;;20.98;39.81;101729.97;16134086;19;130157;-48
2022/05/25 23:31:54;;;;;;;1.67;0.20;;;;;;;20.97;39.81;101741.31;16134855;19;131180;-47
2022/05/25 23:37:16;;;;;;;1.42;0.10;;;;;;;20.95;39.79;101737.91;16133832;19;128965;-50
2022/05/25 23:48:19;;;;;;;0.93;0.10;;;;;;;20.94;39.73;101736.22;16131030;19;130165;-48
2022/05/25 23:53:42;;;;;;;0.47;0.10;;;;;;;20.90;39.92;101736.72;16136852;19;129221;-49
2022/05/25 23:59:04;;;;;;;0.30;0.10;;;;;;;20.90;39.94;101733.94;16137076;19;129180;-47
